createdAt,value
2023-05-24T00:00:02.773Z,3.13
2023-05-24T00:02:29.908Z,2.90
2023-05-24T00:05:01.088Z,2.80
2023-05-24T00:07:28.502Z,2.65
2023-05-24T00:09:55.628Z,2.88
2023-05-24T00:12:22.758Z,2.90
2023-05-24T00:14:49.831Z,2.58
2023-05-24T00:17:16.949Z,3.05
2023-05-24T00:19:44.061Z,2.60
2023-05-24T00:22:12.025Z,2.63
2023-05-24T00:24:39.211Z,2.83
2023-05-24T00:27:07.048Z,3.00
2023-05-24T00:29:34.201Z,2.67
2023-05-24T00:32:01.247Z,3.35
2023-05-24T00:34:28.375Z,2.65
2023-05-24T00:36:57.813Z,2.75
2023-05-24T00:39:24.909Z,2.83
2023-05-24T00:41:52.020Z,2.55
2023-05-24T00:44:19.112Z,3.00
2023-05-24T00:46:46.396Z,3.35
2023-05-24T00:49:13.644Z,2.53
2023-05-24T00:51:41.239Z,2.65
2023-05-24T00:54:08.440Z,2.80
2023-05-24T00:56:35.860Z,2.63
2023-05-24T00:59:03.073Z,2.92
2023-05-24T01:01:31.536Z,3.03
2023-05-24T01:03:59.808Z,3.05
2023-05-24T01:06:29.256Z,2.65
2023-05-24T01:09:08.411Z,2.95
2023-05-24T01:11:44.043Z,3.30
2023-05-24T01:14:37.001Z,2.67
2023-05-24T01:17:15.286Z,2.63
2023-05-24T01:19:53.048Z,2.40
2023-05-24T01:22:53.749Z,2.92
2023-05-24T01:25:26.388Z,2.63
2023-05-24T01:27:54.026Z,2.60
2023-05-24T01:30:21.273Z,2.70
2023-05-24T01:32:48.720Z,2.70
2023-05-24T01:35:15.813Z,3.17
2023-05-24T01:37:42.896Z,3.15
2023-05-24T01:40:11.319Z,2.75
2023-05-24T01:42:49.240Z,3.00
2023-05-24T01:45:40.180Z,2.50
2023-05-24T01:48:25.268Z,2.67
2023-05-24T01:51:07.074Z,3.13
2023-05-24T01:53:36.262Z,2.67
2023-05-24T01:56:06.442Z,2.83
2023-05-24T01:58:34.775Z,3.33
2023-05-24T02:01:02.836Z,3.00
2023-05-24T02:03:30.037Z,2.70
2023-05-24T02:05:57.227Z,2.75
2023-05-24T02:08:24.289Z,2.92
2023-05-24T02:10:51.470Z,2.45
2023-05-24T02:13:19.849Z,2.80
2023-05-24T02:15:48.060Z,2.42
2023-05-24T02:18:15.197Z,2.83
2023-05-24T02:20:42.378Z,3.45
2023-05-24T02:23:09.720Z,2.92
2023-05-24T02:25:36.786Z,3.00
2023-05-24T02:28:03.925Z,2.60
2023-05-24T02:30:31.104Z,3.67
2023-05-24T02:32:58.517Z,3.25
2023-05-24T02:35:26.074Z,2.55
2023-05-24T02:37:53.159Z,2.70
2023-05-24T02:40:20.225Z,2.55
2023-05-24T02:42:47.390Z,2.60
2023-05-24T02:45:14.510Z,2.40
2023-05-24T02:47:41.717Z,2.80
2023-05-24T02:50:09.323Z,3.15
2023-05-24T02:52:36.483Z,2.38
2023-05-24T02:55:04.204Z,2.30
2023-05-24T02:57:34.307Z,2.53
2023-05-24T03:00:01.398Z,2.22
2023-05-24T03:02:34.303Z,2.67
2023-05-24T03:05:01.482Z,2.80
2023-05-24T03:07:28.605Z,3.00
2023-05-24T03:09:55.729Z,2.85
2023-05-24T03:12:22.879Z,3.08
2023-05-24T03:14:49.993Z,3.05
2023-05-24T03:17:17.195Z,2.80
2023-05-24T03:19:44.409Z,3.03
2023-05-24T03:22:11.552Z,2.92
2023-05-24T03:24:38.623Z,3.20
2023-05-24T03:27:06.937Z,2.97
2023-05-24T03:29:34.074Z,2.90
2023-05-24T03:32:01.176Z,3.20
2023-05-24T03:34:28.419Z,3.40
2023-05-24T03:36:55.440Z,2.40
2023-05-24T03:39:22.551Z,3.10
2023-05-24T03:41:49.672Z,2.65
2023-05-24T03:44:16.717Z,2.88
2023-05-24T03:46:43.781Z,3.10
2023-05-24T03:49:10.827Z,3.13
2023-05-24T03:51:37.926Z,2.70
2023-05-24T03:54:05.074Z,3.22
2023-05-24T03:56:32.201Z,3.45
2023-05-24T03:59:03.905Z,2.95
2023-05-24T04:01:35.189Z,2.70
2023-05-24T04:04:06.126Z,3.15
2023-05-24T04:06:36.925Z,2.63
2023-05-24T04:09:06.120Z,2.70
2023-05-24T04:11:33.339Z,2.90
2023-05-24T04:14:00.826Z,2.80
2023-05-24T04:16:28.723Z,3.45
2023-05-24T04:18:56.484Z,3.05
2023-05-24T04:21:25.211Z,3.33
2023-05-24T04:23:52.435Z,2.75
2023-05-24T04:26:21.415Z,2.95
2023-05-24T04:28:48.845Z,3.10
2023-05-24T04:31:16.803Z,3.55
2023-05-24T04:33:44.227Z,2.88
2023-05-24T04:36:12.230Z,3.00
2023-05-24T04:38:39.850Z,3.30
2023-05-24T04:41:07.267Z,3.10
2023-05-24T04:43:35.174Z,2.97
2023-05-24T04:46:02.459Z,2.85
2023-05-24T04:48:29.646Z,3.60
2023-05-24T04:50:58.621Z,2.85
2023-05-24T04:53:25.906Z,2.97
2023-05-24T04:55:53.411Z,3.05
2023-05-24T04:58:20.766Z,2.75
2023-05-24T05:00:48.691Z,2.92
2023-05-24T05:03:16.271Z,3.58
2023-05-24T05:05:43.531Z,2.63
2023-05-24T05:08:10.748Z,3.13
2023-05-24T05:10:37.818Z,2.90
2023-05-24T05:13:04.965Z,2.72
2023-05-24T05:15:32.873Z,2.65
2023-05-24T05:18:00.593Z,3.13
2023-05-24T05:20:28.952Z,3.13
2023-05-24T05:22:56.069Z,3.45
2023-05-24T05:25:23.188Z,3.22
2023-05-24T05:27:50.444Z,3.67
2023-05-24T05:30:17.641Z,3.10
2023-05-24T05:32:44.809Z,3.50
2023-05-24T05:35:11.992Z,3.17
2023-05-24T05:37:39.070Z,3.00
2023-05-24T05:40:06.983Z,3.67
2023-05-24T05:42:34.082Z,3.90
2023-05-24T05:45:01.199Z,3.63
2023-05-24T05:47:28.313Z,3.20
2023-05-24T05:49:55.528Z,3.70
2023-05-24T05:52:22.619Z,3.83
2023-05-24T05:54:49.745Z,3.95
2023-05-24T05:57:19.777Z,4.53
2023-05-24T05:59:46.847Z,4.40
2023-05-24T06:02:13.983Z,3.78
2023-05-24T06:04:41.178Z,3.65
2023-05-24T06:07:08.350Z,4.43
2023-05-24T06:09:35.459Z,3.92
2023-05-24T06:12:02.594Z,4.28
2023-05-24T06:14:29.989Z,4.32
2023-05-24T06:16:58.017Z,4.10
2023-05-24T06:19:27.611Z,4.30
2023-05-24T06:21:54.708Z,4.00
2023-05-24T06:24:21.787Z,5.10
2023-05-24T06:26:50.357Z,4.32
2023-05-24T06:29:19.788Z,4.15
2023-05-24T06:31:47.781Z,4.07
2023-05-24T06:34:19.097Z,4.05
2023-05-24T06:36:48.032Z,4.38
2023-05-24T06:39:16.660Z,4.10
2023-05-24T06:41:45.052Z,3.80
2023-05-24T06:44:12.239Z,4.60
2023-05-24T06:46:40.226Z,3.92
2023-05-24T06:49:07.520Z,4.07
2023-05-24T06:51:34.880Z,4.13
2023-05-24T06:54:03.148Z,4.50
2023-05-24T06:56:30.432Z,3.67
2023-05-24T06:58:57.730Z,4.15
2023-05-24T07:01:24.909Z,3.90
2023-05-24T07:03:52.046Z,3.97
2023-05-24T07:06:19.179Z,4.20
2023-05-24T07:08:46.757Z,3.90
2023-05-24T07:11:14.067Z,5.03
2023-05-24T07:13:41.288Z,4.85
2023-05-24T07:16:08.400Z,4.65
2023-05-24T07:18:35.473Z,3.72
2023-05-24T07:21:02.587Z,4.13
2023-05-24T07:23:29.638Z,4.63
2023-05-24T07:25:56.770Z,4.30
2023-05-24T07:28:23.974Z,4.53
2023-05-24T07:30:51.921Z,4.15
2023-05-24T07:33:19.442Z,5.20
2023-05-24T07:35:51.485Z,4.18
2023-05-24T07:38:19.155Z,4.90
2023-05-24T07:40:46.372Z,4.85
2023-05-24T07:43:13.475Z,4.90
2023-05-24T07:45:40.955Z,5.28
2023-05-24T07:48:08.318Z,4.72
2023-05-24T07:50:35.450Z,5.32
2023-05-24T07:53:02.520Z,4.20
2023-05-24T07:55:29.607Z,5.18
2023-05-24T07:57:56.963Z,4.70
2023-05-24T08:00:24.322Z,4.63
2023-05-24T08:02:52.475Z,4.20
2023-05-24T08:05:19.745Z,4.53
2023-05-24T08:07:46.858Z,4.70
2023-05-24T08:10:14.151Z,4.55
2023-05-24T08:12:42.298Z,4.40
2023-05-24T08:15:09.899Z,4.30
2023-05-24T08:17:38.837Z,4.25
2023-05-24T08:20:10.171Z,4.05
2023-05-24T08:22:37.936Z,4.28
2023-05-24T08:25:06.983Z,4.47
2023-05-24T08:27:37.973Z,4.40
2023-05-24T08:30:05.864Z,4.57
2023-05-24T08:32:33.103Z,4.40
2023-05-24T08:35:14.751Z,4.25
2023-05-24T08:37:46.336Z,4.68
2023-05-24T08:40:13.783Z,3.80
2023-05-24T08:42:42.277Z,4.03
2023-05-24T08:45:12.502Z,3.70
2023-05-24T08:47:40.493Z,3.90
2023-05-24T08:50:08.823Z,4.10
2023-05-24T08:52:36.549Z,4.00
2023-05-24T08:55:06.965Z,3.88
2023-05-24T08:57:35.093Z,3.88
2023-05-24T09:00:02.351Z,3.58
2023-05-24T09:02:32.036Z,3.90
2023-05-24T09:04:59.916Z,3.53
2023-05-24T09:07:27.129Z,3.90
2023-05-24T09:10:01.249Z,3.60
2023-05-24T09:15:07.889Z,3.85
2023-05-24T09:17:39.356Z,3.85
2023-05-24T09:20:10.854Z,4.07
2023-05-24T09:22:42.022Z,4.13
2023-05-24T09:25:11.430Z,4.03
2023-05-24T09:27:39.193Z,4.38
2023-05-24T09:30:11.119Z,4.28
2023-05-24T09:32:38.855Z,3.58
2023-05-24T09:35:10.122Z,4.75
2023-05-24T09:37:39.097Z,4.10
2023-05-24T09:40:11.079Z,3.78
2023-05-24T09:42:38.543Z,3.88
2023-05-24T09:45:09.416Z,4.70
2023-05-24T09:47:37.939Z,3.95
2023-05-24T09:50:13.070Z,4.32
2023-05-24T09:52:41.209Z,4.57
2023-05-24T09:55:21.703Z,4.50
2023-05-24T09:58:02.483Z,3.90
2023-05-24T10:00:31.203Z,3.95
2023-05-24T10:03:08.292Z,4.47
2023-05-24T10:05:36.544Z,4.40
2023-05-24T10:08:06.986Z,4.72
2023-05-24T10:10:34.325Z,4.60
2023-05-24T10:13:02.724Z,4.35
2023-05-24T10:15:31.018Z,4.57
2023-05-24T10:18:00.368Z,4.43
2023-05-24T10:20:28.679Z,4.40
2023-05-24T10:23:03.328Z,4.68
2023-05-24T10:25:32.781Z,4.30
2023-05-24T10:28:05.349Z,4.35
2023-05-24T10:30:35.426Z,4.32
2023-05-24T10:33:05.152Z,4.55
2023-05-24T10:35:34.251Z,4.20
2023-05-24T10:38:08.770Z,4.50
2023-05-24T10:40:41.085Z,4.65
2023-05-24T10:43:09.865Z,4.47
2023-05-24T10:45:41.770Z,4.57
2023-05-24T10:48:29.090Z,3.97
2023-05-24T10:50:56.624Z,4.70
2023-05-24T10:53:26.473Z,4.45
2023-05-24T10:55:57.971Z,4.22
2023-05-24T10:58:44.062Z,4.57
2023-05-24T11:01:32.295Z,4.05
2023-05-24T11:04:08.857Z,3.80
2023-05-24T11:06:51.120Z,3.88
2023-05-24T11:09:20.509Z,4.55
2023-05-24T11:11:50.205Z,4.57
2023-05-24T11:14:24.560Z,3.95
2023-05-24T11:16:52.159Z,4.10
2023-05-24T11:19:22.267Z,3.88
2023-05-24T11:21:51.804Z,4.18
2023-05-24T11:24:20.846Z,4.43
2023-05-24T11:26:48.074Z,3.88
2023-05-24T11:29:21.245Z,4.40
2023-05-24T11:31:52.849Z,3.90
2023-05-24T11:34:23.990Z,3.92
2023-05-24T11:36:55.637Z,3.83
2023-05-24T11:39:23.889Z,3.85
2023-05-24T11:41:51.247Z,4.25
2023-05-24T11:44:21.903Z,4.80
2023-05-24T11:46:48.998Z,4.88
2023-05-24T11:49:17.538Z,4.15
2023-05-24T11:51:44.888Z,4.32
2023-05-24T11:54:12.089Z,4.35
2023-05-24T11:56:39.278Z,4.13
2023-05-24T11:59:21.286Z,4.32
2023-05-24T12:01:48.370Z,4.07
2023-05-24T12:04:15.589Z,4.75
2023-05-24T12:06:44.598Z,4.18
2023-05-24T12:09:16.822Z,4.60
2023-05-24T12:11:47.550Z,5.40
2023-05-24T12:14:16.679Z,4.75
2023-05-24T12:16:44.700Z,4.68
2023-05-24T12:21:55.271Z,4.60
2023-05-24T12:24:24.507Z,4.63
2023-05-24T12:26:51.903Z,4.53
2023-05-24T12:29:20.403Z,4.63
2023-05-24T12:31:50.774Z,5.15
2023-05-24T12:34:21.305Z,5.05
2023-05-24T12:36:48.830Z,4.63
2023-05-24T12:39:19.632Z,5.07
2023-05-24T12:41:53.367Z,4.72
2023-05-24T12:44:53.137Z,4.72
2023-05-24T12:47:20.338Z,4.55
2023-05-24T12:49:47.640Z,4.93
2023-05-24T12:52:14.981Z,5.43
2023-05-24T12:54:42.165Z,5.22
2023-05-24T12:57:09.317Z,5.53
2023-05-24T12:59:37.483Z,5.38
2023-05-24T13:02:04.717Z,6.30
2023-05-24T13:04:33.991Z,4.80
2023-05-24T13:07:03.131Z,5.07
2023-05-24T13:09:30.261Z,5.15
2023-05-24T13:11:57.462Z,5.40
2023-05-24T13:14:24.584Z,5.05
2023-05-24T13:16:51.849Z,5.07
2023-05-24T13:19:19.285Z,4.88
2023-05-24T13:21:46.421Z,5.05
2023-05-24T13:24:16.331Z,4.93
2023-05-24T13:26:43.946Z,5.00
2023-05-24T13:31:41.968Z,4.80
2023-05-24T13:34:11.389Z,5.38
2023-05-24T13:36:38.770Z,4.43
2023-05-24T13:41:37.949Z,5.50
2023-05-24T13:44:05.342Z,5.07
2023-05-24T13:46:32.881Z,4.75
2023-05-24T13:49:00.145Z,4.53
2023-05-24T13:51:27.533Z,4.00
2023-05-24T13:53:55.720Z,4.75
2023-05-24T13:56:24.356Z,4.47
2023-05-24T13:58:52.566Z,3.92
2023-05-24T14:01:20.182Z,4.63
2023-05-24T14:03:47.403Z,4.90
2023-05-24T14:06:14.697Z,4.88
2023-05-24T14:08:42.668Z,4.57
2023-05-24T14:11:10.088Z,4.82
2023-05-24T14:16:08.904Z,4.45
2023-05-24T14:18:36.628Z,3.92
2023-05-24T14:21:04.101Z,4.88
2023-05-24T14:23:32.174Z,4.40
2023-05-24T14:25:59.752Z,4.63
2023-05-24T14:28:27.155Z,4.15
2023-05-24T14:30:54.336Z,4.93
2023-05-24T14:33:21.481Z,4.65
2023-05-24T14:35:49.194Z,4.30
2023-05-24T14:38:16.690Z,4.35
2023-05-24T14:40:47.596Z,3.83
2023-05-24T14:43:15.133Z,4.53
2023-05-24T14:45:43.138Z,4.18
2023-05-24T14:48:11.878Z,4.32
2023-05-24T14:50:40.582Z,4.05
2023-05-24T14:53:12.028Z,4.70
2023-05-24T14:55:41.376Z,4.10
2023-05-24T14:58:09.473Z,4.25
2023-05-24T15:00:36.997Z,4.15
2023-05-24T15:03:06.179Z,4.43
2023-05-24T15:05:33.862Z,3.97
2023-05-24T15:08:01.169Z,4.13
2023-05-24T15:10:28.364Z,4.00
2023-05-24T15:12:55.587Z,4.57
2023-05-24T15:15:23.596Z,4.75
2023-05-24T15:17:51.245Z,4.90
2023-05-24T15:20:19.565Z,4.65
2023-05-24T15:22:47.070Z,4.85
2023-05-24T15:25:14.568Z,4.30
2023-05-24T15:27:41.671Z,4.65
2023-05-24T15:30:09.333Z,4.38
2023-05-24T15:32:36.485Z,4.50
2023-05-24T15:35:04.658Z,4.40
2023-05-24T15:37:32.077Z,4.22
2023-05-24T15:39:59.182Z,4.13
2023-05-24T15:42:26.299Z,4.25
2023-05-24T15:44:53.530Z,4.55
2023-05-24T15:47:22.478Z,4.65
2023-05-24T15:49:50.051Z,4.18
2023-05-24T15:52:17.418Z,4.60
2023-05-24T15:54:44.645Z,4.20
2023-05-24T15:57:11.849Z,5.93
2023-05-24T15:59:39.867Z,4.47
2023-05-24T16:02:07.345Z,4.20
2023-05-24T16:04:34.693Z,4.32
2023-05-24T16:07:01.803Z,3.97
2023-05-24T16:09:28.939Z,4.40
2023-05-24T16:11:56.097Z,4.35
2023-05-24T16:14:23.275Z,4.18
2023-05-24T16:16:50.464Z,4.03
2023-05-24T16:19:17.602Z,4.20
2023-05-24T16:21:44.859Z,4.32
2023-05-24T16:24:11.996Z,4.15
2023-05-24T16:26:39.158Z,5.28
2023-05-24T16:29:07.273Z,4.70
2023-05-24T16:31:34.438Z,4.78
2023-05-24T16:34:01.856Z,4.45
2023-05-24T16:36:29.194Z,4.57
2023-05-24T16:38:56.325Z,4.50
2023-05-24T16:41:23.507Z,4.32
2023-05-24T16:43:50.738Z,4.88
2023-05-24T16:46:18.890Z,4.47
2023-05-24T16:48:46.176Z,5.07
2023-05-24T16:51:13.633Z,4.82
2023-05-24T16:53:40.688Z,5.13
2023-05-24T16:56:07.868Z,5.05
2023-05-24T16:58:34.941Z,5.50
2023-05-24T17:01:02.067Z,5.03
2023-05-24T17:03:29.682Z,5.35
2023-05-24T17:06:03.465Z,5.40
2023-05-24T17:08:35.744Z,5.63
2023-05-24T17:11:06.580Z,5.47
2023-05-24T17:13:34.349Z,6.03
2023-05-24T17:16:03.591Z,5.63
2023-05-24T17:18:31.396Z,6.32
2023-05-24T17:21:00.703Z,6.47
2023-05-24T17:23:30.903Z,5.68
2023-05-24T17:25:58.783Z,6.13
2023-05-24T17:28:29.905Z,6.55
2023-05-24T17:30:58.751Z,6.85
2023-05-24T17:33:28.160Z,6.70
2023-05-24T17:36:02.981Z,7.10
2023-05-24T17:38:33.248Z,6.55
2023-05-24T17:41:00.468Z,7.15
2023-05-24T17:43:29.335Z,7.13
2023-05-24T17:46:03.666Z,7.28
2023-05-24T17:48:35.442Z,7.25
2023-05-24T17:51:07.100Z,7.57
2023-05-24T17:53:35.789Z,6.70
2023-05-24T17:56:03.768Z,7.25
2023-05-24T17:58:33.066Z,7.10
2023-05-24T18:01:00.307Z,7.95
2023-05-24T18:03:27.624Z,7.35
2023-05-24T18:05:54.841Z,7.45
2023-05-24T18:08:22.650Z,7.15
2023-05-24T18:10:49.694Z,7.18
2023-05-24T18:13:20.533Z,7.78
2023-05-24T18:15:48.104Z,7.20
2023-05-24T18:18:16.299Z,7.50
2023-05-24T18:20:44.168Z,7.10
2023-05-24T18:23:11.356Z,6.05
2023-05-24T18:25:38.620Z,6.20
2023-05-24T18:28:05.830Z,6.55
2023-05-24T18:30:32.878Z,6.80
2023-05-24T18:35:30.350Z,6.90
2023-05-24T18:37:57.414Z,6.43
2023-05-24T18:40:24.863Z,6.53
2023-05-24T18:42:52.262Z,6.28
2023-05-24T18:45:19.488Z,6.32
2023-05-24T18:47:46.758Z,6.15
2023-05-24T18:50:13.989Z,6.40
2023-05-24T18:52:41.067Z,6.90
2023-05-24T18:55:10.974Z,6.65
2023-05-24T18:57:38.660Z,6.30
2023-05-24T19:00:07.529Z,5.75
2023-05-24T19:02:39.677Z,6.25
2023-05-24T19:05:07.919Z,6.15
2023-05-24T19:07:37.589Z,6.03
2023-05-24T19:10:05.153Z,6.65
2023-05-24T19:12:32.415Z,5.88
2023-05-24T19:14:59.872Z,5.88
2023-05-24T19:17:27.097Z,6.60
2023-05-24T19:19:54.608Z,5.78
2023-05-24T19:22:21.774Z,6.32
2023-05-24T19:24:49.011Z,6.28
2023-05-24T19:27:16.239Z,5.70
2023-05-24T19:29:43.362Z,6.00
2023-05-24T19:32:11.850Z,6.60
2023-05-24T19:34:42.488Z,5.63
2023-05-24T19:37:11.490Z,6.10
2023-05-24T19:39:38.714Z,6.18
2023-05-24T19:42:06.776Z,6.18
2023-05-24T19:44:34.104Z,6.00
2023-05-24T19:47:01.261Z,6.10
2023-05-24T19:49:28.284Z,6.40
2023-05-24T19:51:55.476Z,5.20
2023-05-24T19:54:22.823Z,5.65
2023-05-24T19:56:52.113Z,5.53
2023-05-24T19:59:19.590Z,5.20
2023-05-24T20:01:46.850Z,5.78
2023-05-24T20:04:14.448Z,5.53
2023-05-24T20:06:41.747Z,5.47
2023-05-24T20:09:08.911Z,5.40
2023-05-24T20:11:36.065Z,5.47
2023-05-24T20:14:03.328Z,5.45
2023-05-24T20:16:31.459Z,5.47
2023-05-24T20:18:58.640Z,5.25
2023-05-24T20:21:25.971Z,5.57
2023-05-24T20:23:58.617Z,5.50
2023-05-24T20:26:26.485Z,5.55
2023-05-24T20:28:53.870Z,5.75
2023-05-24T20:31:21.178Z,5.85
2023-05-24T20:33:51.687Z,5.35
2023-05-24T20:36:20.466Z,6.03
2023-05-24T20:38:47.796Z,5.28
2023-05-24T20:41:15.825Z,5.00
2023-05-24T20:43:42.938Z,5.70
2023-05-24T20:46:10.091Z,6.72
2023-05-24T20:48:47.174Z,6.38
2023-05-24T20:51:14.322Z,6.15
2023-05-24T20:53:41.448Z,6.47
2023-05-24T20:56:08.507Z,6.43
2023-05-24T20:58:35.623Z,6.15
2023-05-24T21:01:02.759Z,6.35
2023-05-24T21:03:30.193Z,5.60
2023-05-24T21:05:57.434Z,5.82
2023-05-24T21:08:24.544Z,5.70
2023-05-24T21:10:52.329Z,5.75
2023-05-24T21:13:20.660Z,5.60
2023-05-24T21:15:48.089Z,6.57
2023-05-24T21:18:15.597Z,5.75
2023-05-24T21:20:42.645Z,6.13
2023-05-24T21:23:10.923Z,5.40
2023-05-24T21:25:38.067Z,6.03
2023-05-24T21:28:05.163Z,6.18
2023-05-24T21:30:32.678Z,5.55
2023-05-24T21:32:59.883Z,5.75
2023-05-24T21:35:27.968Z,6.63
2023-05-24T21:37:55.144Z,5.80
2023-05-24T21:40:22.563Z,5.38
2023-05-24T21:42:49.635Z,5.80
2023-05-24T21:45:16.794Z,5.50
2023-05-24T21:47:43.972Z,6.40
2023-05-24T21:50:11.458Z,6.32
2023-05-24T21:52:39.514Z,6.32
2023-05-24T21:55:06.937Z,5.97
2023-05-24T21:57:34.069Z,5.95
2023-05-24T22:00:01.592Z,5.90
2023-05-24T22:02:30.446Z,6.47
2023-05-24T22:04:57.690Z,6.15
2023-05-24T22:07:24.805Z,6.22
2023-05-24T22:09:51.908Z,6.40
2023-05-24T22:12:19.068Z,6.45
2023-05-24T22:14:46.286Z,5.85
2023-05-24T22:17:14.378Z,6.50
2023-05-24T22:19:41.522Z,6.72
2023-05-24T22:22:10.054Z,5.65
2023-05-24T22:24:37.213Z,6.28
2023-05-24T22:27:04.913Z,6.78
2023-05-24T22:29:31.962Z,6.22
2023-05-24T22:31:59.116Z,6.20
2023-05-24T22:34:30.240Z,6.50
2023-05-24T22:36:57.920Z,6.88
2023-05-24T22:39:25.232Z,6.60
2023-05-24T22:41:53.202Z,6.45
2023-05-24T22:44:20.498Z,7.93
2023-05-24T22:46:53.864Z,6.93
2023-05-24T22:49:21.650Z,8.68
2023-05-24T22:51:53.645Z,6.20
2023-05-24T22:54:21.138Z,6.85
2023-05-24T22:56:48.378Z,7.45
2023-05-24T22:59:15.496Z,6.95
2023-05-24T23:01:44.839Z,7.00
2023-05-24T23:04:20.449Z,7.22
2023-05-24T23:06:53.483Z,7.15
2023-05-24T23:09:29.401Z,7.30
2023-05-24T23:11:58.966Z,7.60
2023-05-24T23:14:26.048Z,7.47
2023-05-24T23:16:53.163Z,6.90
2023-05-24T23:19:20.237Z,7.38
2023-05-24T23:21:47.661Z,6.97
2023-05-24T23:24:16.057Z,7.43
2023-05-24T23:26:43.603Z,6.93
2023-05-24T23:29:10.981Z,7.65
2023-05-24T23:31:41.745Z,6.32
2023-05-24T23:34:08.916Z,6.68
2023-05-24T23:36:36.719Z,6.47
2023-05-24T23:39:04.111Z,7.75
2023-05-24T23:41:31.156Z,6.97
2023-05-24T23:43:58.251Z,7.05
2023-05-24T23:46:25.319Z,5.93
2023-05-24T23:48:52.402Z,6.70
2023-05-24T23:51:20.450Z,7.43
2023-05-24T23:53:47.619Z,6.43
2023-05-24T23:56:14.796Z,6.57
2023-05-24T23:58:42.122Z,6.32
